Anthem Of The Seas — C6BI7 — position and weather

sailwx.info

Track history (hours):
 
Tides and Currents Weather Stations Pressure Air Temp Water Temp Dewpoint Dewpoint Depression Visibility Wind Speed Wind Dir Waves Ship Positions

Anthem Of The Seas

Last reported at 2020-Jan-24 00:17 UTC. Time now 2020-Jan-25 05:34 UTC.
Position N 18°08' W 063°20'.

Length 348 m; draft 8.8 m.

Type: Passenger vessel. MMSI: 311000274.

Date/timePositionNaut miles runAvg speedWind from/ knotsBaromVisibWave heightAir tempDewpointWater temp
2020-Jan-24 00:17N 18°08' W 063°20'1620.2
2020-Jan-23 23:29N 17°54' W 063°13'3120.5
2020-Jan-23 21:59N 17°26' W 062°60'20 1.7
2020-Jan-23 09:57N 17°13' W 062°44'  
2020-Jan-21 03:18N 17°42' W 062°50'4 8.2
2020-Jan-21 02:47N 17°43' W 062°54'9 7.2
2020-Jan-21 01:29N 17°50' W 063°01'4 7.5
2020-Jan-21 00:54N 17°52' W 063°05'9 2.3
2020-Jan-20 20:59N 18°01' W 063°03'0 0.0
2020-Jan-20 18:29N 18°01' W 063°03'0 0.0
2020-Jan-20 16:47N 18°01' W 063°03'0 0.0
2020-Jan-20 14:50N 18°01' W 063°03'0 0.0
2020-Jan-20 13:24N 18°01' W 063°03'1913.7
2020-Jan-20 12:01N 18°02' W 063°23'9218.5
2020-Jan-20 07:01N 18°14' W 064°59'1716.6
2020-Jan-20 06:01N 18°25' W 065°12'917.6
2020-Jan-20 05:31N 18°27' W 065°21'918.0
2020-Jan-20 05:01N 18°29' W 065°30'2818.6
2020-Jan-20 03:30N 18°32' W 065°60'8 8.1
2020-Jan-20 02:30N 18°28' W 066°07'0 0.1
2020-Jan-20 01:30N 18°28' W 066°07'0 0.0
2020-Jan-20 00:57N 18°28' W 066°07'0 0.0
2020-Jan-19 23:30N 18°28' W 066°07'0 0.0
2020-Jan-19 20:57N 18°28' W 066°07'0 0.0
2020-Jan-19 19:00N 18°28' W 066°07'0 0.0
2020-Jan-19 18:30N 18°28' W 066°07'  
2020-Jan-16 17:30N 40°40' W 074°04'0 0.0
2020-Jan-16 17:00N 40°40' W 074°04'0 0.0
2020-Jan-16 14:00N 40°40' W 074°04'0 0.0
2020-Jan-16 13:00N 40°40' W 074°04'0 0.0
2020-Jan-16 12:30N 40°40' W 074°04'0 0.0
2020-Jan-16 12:00N 40°40' W 074°04'0 0.0
2020-Jan-16 11:00N 40°40' W 074°04'13 8.6
2020-Jan-16 09:30N 40°29' W 073°54'9 9.2
2020-Jan-16 08:30N 40°25' W 073°44'26917.3
2020-Jan-15 17:00N 36°24' W 071°12'   350 / 251022.1 17.0 21.6
Track history (hours):
 
Tides and Currents Weather Stations Pressure Air Temp Water Temp Dewpoint Dewpoint Depression Visibility Wind Speed Wind Dir Waves Ship Positions

Anthem Of The Seas

Last reported at 2020-Jan-24 00:17 UTC. Time now 2020-Jan-25 05:34 UTC.
Position N 18°08' W 063°20'.

Length 348 m; draft 8.8 m.

Type: Passenger vessel. MMSI: 311000274.

Date/timePositionNaut miles runAvg speedWind from/ knotsBaromVisibWave heightAir tempDewpointWater temp
2020-Jan-24 00:17N 18°08' W 063°20'1620.2
2020-Jan-23 23:29N 17°54' W 063°13'3120.5
2020-Jan-23 21:59N 17°26' W 062°60'20 1.7
2020-Jan-23 09:57N 17°13' W 062°44'  
2020-Jan-21 03:18N 17°42' W 062°50'4 8.2
2020-Jan-21 02:47N 17°43' W 062°54'9 7.2
2020-Jan-21 01:29N 17°50' W 063°01'4 7.5
2020-Jan-21 00:54N 17°52' W 063°05'9 2.3
2020-Jan-20 20:59N 18°01' W 063°03'0 0.0
2020-Jan-20 18:29N 18°01' W 063°03'0 0.0
2020-Jan-20 16:47N 18°01' W 063°03'0 0.0
2020-Jan-20 14:50N 18°01' W 063°03'0 0.0
2020-Jan-20 13:24N 18°01' W 063°03'1913.7
2020-Jan-20 12:01N 18°02' W 063°23'9218.5
2020-Jan-20 07:01N 18°14' W 064°59'1716.6
2020-Jan-20 06:01N 18°25' W 065°12'917.6
2020-Jan-20 05:31N 18°27' W 065°21'918.0
2020-Jan-20 05:01N 18°29' W 065°30'2818.6
2020-Jan-20 03:30N 18°32' W 065°60'8 8.1
2020-Jan-20 02:30N 18°28' W 066°07'0 0.1
2020-Jan-20 01:30N 18°28' W 066°07'0 0.0
2020-Jan-20 00:57N 18°28' W 066°07'0 0.0
2020-Jan-19 23:30N 18°28' W 066°07'0 0.0
2020-Jan-19 20:57N 18°28' W 066°07'0 0.0
2020-Jan-19 19:00N 18°28' W 066°07'0 0.0
2020-Jan-19 18:30N 18°28' W 066°07'  
2020-Jan-16 17:30N 40°40' W 074°04'0 0.0
2020-Jan-16 17:00N 40°40' W 074°04'0 0.0
2020-Jan-16 14:00N 40°40' W 074°04'0 0.0
2020-Jan-16 13:00N 40°40' W 074°04'0 0.0
2020-Jan-16 12:30N 40°40' W 074°04'0 0.0
2020-Jan-16 12:00N 40°40' W 074°04'0 0.0
2020-Jan-16 11:00N 40°40' W 074°04'13 8.6
2020-Jan-16 09:30N 40°29' W 073°54'9 9.2
2020-Jan-16 08:30N 40°25' W 073°44'26917.3
2020-Jan-15 17:00N 36°24' W 071°12'   350 / 251022.1 17.0 21.6

Dump ship's entire track history